createdAt,value
2023-04-13T00:00:13.364Z,9.10
2023-04-13T00:02:40.159Z,9.10
2023-04-13T00:05:10.093Z,9.00
2023-04-13T00:07:38.605Z,9.00
2023-04-13T00:10:08.757Z,9.00
2023-04-13T00:12:35.918Z,9.00
2023-04-13T00:15:05.899Z,9.10
2023-04-13T00:17:33.589Z,9.00
2023-04-13T00:20:00.453Z,9.00
2023-04-13T00:22:30.391Z,9.00
2023-04-13T00:24:57.801Z,8.90
2023-04-13T00:27:27.387Z,8.90
2023-04-13T00:29:57.658Z,8.90
2023-04-13T00:32:25.716Z,8.90
2023-04-13T00:34:53.210Z,8.90
2023-04-13T00:37:20.157Z,8.90
2023-04-13T00:39:46.935Z,8.90
2023-04-13T00:42:14.031Z,8.90
2023-04-13T00:44:40.650Z,8.80
2023-04-13T00:47:07.961Z,8.80
2023-04-13T00:49:35.562Z,8.70
2023-04-13T00:52:03.141Z,8.70
2023-04-13T00:54:30.423Z,8.70
2023-04-13T00:56:58.897Z,8.70
2023-04-13T00:59:27.775Z,8.60
2023-04-13T01:01:57.621Z,8.60
2023-04-13T01:04:25.770Z,8.50
2023-04-13T01:07:03.243Z,8.50
2023-04-13T01:09:44.357Z,8.40
2023-04-13T01:12:36.729Z,8.40
2023-04-13T01:15:11.393Z,8.40
2023-04-13T01:17:40.130Z,8.40
2023-04-13T01:20:10.644Z,8.40
2023-04-13T01:22:39.767Z,8.40
2023-04-13T01:25:32.602Z,8.40
2023-04-13T01:28:07.516Z,8.50
2023-04-13T01:30:35.854Z,8.50
2023-04-13T01:33:04.447Z,8.40
2023-04-13T01:35:31.952Z,8.40
2023-04-13T01:37:59.232Z,8.40
2023-04-13T01:40:29.148Z,8.30
2023-04-13T01:42:56.565Z,8.30
2023-04-13T01:45:27.377Z,8.30
2023-04-13T01:48:06.353Z,8.30
2023-04-13T01:50:45.751Z,8.30
2023-04-13T01:53:17.723Z,8.30
2023-04-13T01:55:45.395Z,8.30
2023-04-13T01:58:14.269Z,8.40
2023-04-13T02:00:42.269Z,8.40
2023-04-13T02:03:10.998Z,8.30
2023-04-13T02:05:38.824Z,8.30
2023-04-13T02:08:06.334Z,8.40
2023-04-13T02:10:34.882Z,8.30
2023-04-13T02:13:01.985Z,8.40
2023-04-13T02:15:28.613Z,8.40
2023-04-13T02:17:55.387Z,8.40
2023-04-13T02:20:22.219Z,8.30
2023-04-13T02:22:48.916Z,8.30
2023-04-13T02:25:15.706Z,8.30
2023-04-13T02:27:42.947Z,8.30
2023-04-13T02:30:10.205Z,8.30
2023-04-13T02:32:39.634Z,8.30
2023-04-13T02:35:10.952Z,8.30
2023-04-13T02:37:40.141Z,8.30
2023-04-13T02:40:10.643Z,8.30
2023-04-13T02:42:41.279Z,8.30
2023-04-13T02:45:12.247Z,8.30
2023-04-13T02:47:40.279Z,8.30
2023-04-13T02:50:07.759Z,8.30
2023-04-13T02:52:34.339Z,8.20
2023-04-13T02:55:01.613Z,8.20
2023-04-13T02:57:28.372Z,8.20
2023-04-13T02:59:54.961Z,8.20
2023-04-13T03:02:21.826Z,8.10
2023-04-13T03:04:48.884Z,8.10
2023-04-13T03:07:17.257Z,8.10
2023-04-13T03:09:44.777Z,8.10
2023-04-13T03:12:11.483Z,8.00
2023-04-13T03:14:38.208Z,8.00
2023-04-13T03:17:05.236Z,7.90
2023-04-13T03:19:32.750Z,7.90
2023-04-13T03:21:59.394Z,7.90
2023-04-13T03:24:29.111Z,7.90
2023-04-13T03:26:57.063Z,7.80
2023-04-13T03:29:24.476Z,7.80
2023-04-13T03:31:51.569Z,7.80
2023-04-13T03:34:19.021Z,7.70
2023-04-13T03:36:45.890Z,7.70
2023-04-13T03:39:12.985Z,7.70
2023-04-13T03:41:39.710Z,7.60
2023-04-13T03:44:07.872Z,7.70
2023-04-13T03:46:37.561Z,7.60
2023-04-13T03:49:09.790Z,7.60
2023-04-13T03:51:39.566Z,7.60
2023-04-13T03:54:06.302Z,7.60
2023-04-13T03:56:33.577Z,7.50
2023-04-13T03:59:00.263Z,7.50
2023-04-13T04:01:27.294Z,7.50
2023-04-13T04:03:57.317Z,7.50
2023-04-13T04:06:24.493Z,7.40
2023-04-13T04:08:51.417Z,7.40
2023-04-13T04:11:18.086Z,7.40
2023-04-13T04:13:44.974Z,7.30
2023-04-13T04:16:11.890Z,7.30
2023-04-13T04:18:39.297Z,7.20
2023-04-13T04:21:06.967Z,7.30
2023-04-13T04:23:34.872Z,7.20
2023-04-13T04:26:03.020Z,7.20
2023-04-13T04:28:30.610Z,7.20
2023-04-13T04:31:01.028Z,7.20
2023-04-13T04:33:28.008Z,7.10
2023-04-13T04:35:54.645Z,7.10
2023-04-13T04:38:25.053Z,7.10
2023-04-13T04:40:57.572Z,7.10
2023-04-13T04:43:27.208Z,7.10
2023-04-13T04:45:57.607Z,7.10
2023-04-13T04:48:27.073Z,7.10
2023-04-13T04:50:56.226Z,7.10
2023-04-13T04:53:23.526Z,7.10
2023-04-13T04:55:50.545Z,7.10
2023-04-13T04:58:19.568Z,7.10
2023-04-13T05:00:47.947Z,7.10
2023-04-13T05:03:14.890Z,7.10
2023-04-13T05:05:43.157Z,7.10
2023-04-13T05:08:11.648Z,7.10
2023-04-13T05:10:45.474Z,7.10
2023-04-13T05:13:12.954Z,7.10
2023-04-13T05:15:39.635Z,7.10
2023-04-13T05:18:06.434Z,7.10
2023-04-13T05:20:34.791Z,7.10
2023-04-13T05:23:01.770Z,7.10
2023-04-13T05:25:28.966Z,7.10
2023-04-13T05:27:56.210Z,7.20
2023-04-13T05:30:23.159Z,7.20
2023-04-13T05:32:49.792Z,7.20
2023-04-13T05:35:16.439Z,7.20
2023-04-13T05:37:44.596Z,7.30
2023-04-13T05:40:14.446Z,7.30
2023-04-13T05:42:42.965Z,7.40
2023-04-13T05:45:10.613Z,7.40
2023-04-13T05:47:38.868Z,7.40
2023-04-13T05:50:06.572Z,7.50
2023-04-13T05:52:33.219Z,7.60
2023-04-13T05:54:59.827Z,7.60
2023-04-13T05:57:27.719Z,7.70
2023-04-13T05:59:54.953Z,7.80
2023-04-13T06:02:22.789Z,7.90
2023-04-13T06:04:52.512Z,7.90
2023-04-13T06:07:19.997Z,7.90
2023-04-13T06:09:46.599Z,8.00
2023-04-13T06:12:13.655Z,8.10
2023-04-13T06:14:41.740Z,8.10
2023-04-13T06:17:08.581Z,8.10
2023-04-13T06:19:35.490Z,8.10
2023-04-13T06:22:02.214Z,8.20
2023-04-13T06:24:28.874Z,8.20
2023-04-13T06:26:55.615Z,8.20
2023-04-13T06:29:23.667Z,8.30
2023-04-13T06:31:50.638Z,8.30
2023-04-13T06:34:17.925Z,8.40
2023-04-13T06:36:44.636Z,8.50
2023-04-13T06:39:11.650Z,8.50
2023-04-13T06:41:38.315Z,8.50
2023-04-13T06:44:05.261Z,8.60
2023-04-13T06:46:32.016Z,8.60
2023-04-13T06:48:58.941Z,8.60
2023-04-13T06:51:27.073Z,8.70
2023-04-13T06:53:54.699Z,8.70
2023-04-13T06:56:21.501Z,8.80
2023-04-13T06:58:48.242Z,8.70
2023-04-13T07:01:16.149Z,8.80
2023-04-13T07:03:44.034Z,8.90
2023-04-13T07:06:11.625Z,8.90
2023-04-13T07:08:38.255Z,9.00
2023-04-13T07:11:05.111Z,9.10
2023-04-13T07:13:31.727Z,9.10
2023-04-13T07:15:58.410Z,9.10
2023-04-13T07:18:25.517Z,9.10
2023-04-13T07:20:53.060Z,9.20
2023-04-13T07:23:19.769Z,9.10
2023-04-13T07:25:46.455Z,9.00
2023-04-13T07:28:13.132Z,9.10
2023-04-13T07:30:44.061Z,9.00
2023-04-13T07:33:11.153Z,9.10
2023-04-13T07:35:38.405Z,9.10
2023-04-13T07:38:06.210Z,9.10
2023-04-13T07:40:32.966Z,9.10
2023-04-13T07:42:59.592Z,9.10
2023-04-13T07:45:29.150Z,9.20
2023-04-13T07:47:55.867Z,9.20
2023-04-13T07:50:23.079Z,9.30
2023-04-13T07:52:49.837Z,9.40
2023-04-13T07:55:16.786Z,9.60
2023-04-13T07:57:43.697Z,9.60
2023-04-13T08:00:12.268Z,9.70
2023-04-13T08:02:39.199Z,9.70
2023-04-13T08:05:07.004Z,9.70
2023-04-13T08:07:33.939Z,9.70
2023-04-13T08:10:02.001Z,9.70
2023-04-13T08:12:28.705Z,9.80
2023-04-13T08:14:55.319Z,9.80
2023-04-13T08:17:21.975Z,9.80
2023-04-13T08:19:48.785Z,9.90
2023-04-13T08:22:15.424Z,10.00
2023-04-13T08:24:42.149Z,10.10
2023-04-13T08:27:08.835Z,10.10
2023-04-13T08:29:35.484Z,10.20
2023-04-13T08:32:02.369Z,10.30
2023-04-13T08:34:29.187Z,10.30
2023-04-13T08:36:55.877Z,10.50
2023-04-13T08:39:22.870Z,10.60
2023-04-13T08:41:49.663Z,10.70
2023-04-13T08:44:17.604Z,10.70
2023-04-13T08:46:46.011Z,10.70
2023-04-13T08:49:13.573Z,10.80
2023-04-13T08:51:43.475Z,10.90
2023-04-13T08:54:12.799Z,10.80
2023-04-13T08:56:45.876Z,10.80
2023-04-13T08:59:16.047Z,10.70
2023-04-13T09:01:45.393Z,10.70
2023-04-13T09:04:14.126Z,10.70
2023-04-13T09:06:43.055Z,10.70
2023-04-13T09:09:13.484Z,10.80
2023-04-13T09:11:42.091Z,11.00
2023-04-13T09:14:10.170Z,11.10
2023-04-13T09:16:44.107Z,11.20
2023-04-13T09:19:12.896Z,11.30
2023-04-13T09:21:41.189Z,11.40
2023-04-13T09:24:08.610Z,11.30
2023-04-13T09:26:46.671Z,11.30
2023-04-13T09:29:16.441Z,11.30
2023-04-13T09:31:45.544Z,11.30
2023-04-13T09:34:12.773Z,11.30
2023-04-13T09:36:52.987Z,11.30
2023-04-13T09:39:28.856Z,11.40
2023-04-13T09:41:56.058Z,11.50
2023-04-13T09:44:31.009Z,11.70
2023-04-13T09:46:59.323Z,11.70
2023-04-13T09:49:26.886Z,11.80
2023-04-13T09:51:54.762Z,11.70
2023-04-13T09:54:22.090Z,11.60
2023-04-13T09:56:54.672Z,11.60
2023-04-13T09:59:25.596Z,11.80
2023-04-13T10:01:54.118Z,11.70
2023-04-13T10:04:21.105Z,11.60
2023-04-13T10:06:48.326Z,11.60
2023-04-13T10:09:15.743Z,11.70
2023-04-13T10:11:45.983Z,11.90
2023-04-13T10:14:20.934Z,12.10
2023-04-13T10:17:15.830Z,12.20
2023-04-13T10:19:49.523Z,12.50
2023-04-13T10:22:17.610Z,12.40
2023-04-13T10:24:44.704Z,12.30
2023-04-13T10:27:22.537Z,12.20
2023-04-13T10:29:49.924Z,12.40
2023-04-13T10:32:25.663Z,12.70
2023-04-13T10:34:53.393Z,12.80
2023-04-13T10:37:23.266Z,13.00
2023-04-13T10:40:01.890Z,13.10
2023-04-13T10:42:51.140Z,13.20
2023-04-13T10:45:20.427Z,13.40
2023-04-13T10:47:47.496Z,13.40
2023-04-13T10:50:25.196Z,13.50
2023-04-13T10:52:59.170Z,13.60
2023-04-13T10:55:27.298Z,13.60
2023-04-13T10:57:56.371Z,13.50
2023-04-13T11:00:42.428Z,13.60
2023-04-13T11:03:15.367Z,13.80
2023-04-13T11:05:43.421Z,13.90
2023-04-13T11:08:16.081Z,13.80
2023-04-13T11:10:42.787Z,13.80
2023-04-13T11:13:09.417Z,13.70
2023-04-13T11:15:36.353Z,13.80
2023-04-13T11:18:03.777Z,13.80
2023-04-13T11:20:42.047Z,13.70
2023-04-13T11:23:15.679Z,13.80
2023-04-13T11:26:02.766Z,13.80
2023-04-13T11:28:41.126Z,13.70
2023-04-13T11:31:08.557Z,13.90
2023-04-13T11:33:38.660Z,14.00
2023-04-13T11:36:07.843Z,14.30
2023-04-13T11:38:34.543Z,14.10
2023-04-13T11:41:15.945Z,14.00
2023-04-13T11:43:46.154Z,14.00
2023-04-13T11:46:15.361Z,13.90
2023-04-13T11:48:43.721Z,14.10
2023-04-13T11:51:11.337Z,14.30
2023-04-13T11:53:39.520Z,14.40
2023-04-13T11:56:07.358Z,14.50
2023-04-13T11:58:34.515Z,14.80
2023-04-13T12:01:14.010Z,15.10
2023-04-13T12:03:59.051Z,15.30
2023-04-13T12:06:33.003Z,15.40
2023-04-13T12:09:10.893Z,15.60
2023-04-13T12:11:46.352Z,15.70
2023-04-13T12:14:47.713Z,15.80
2023-04-13T12:17:34.832Z,15.90
2023-04-13T12:20:00.654Z,16.10
2023-04-13T12:22:54.941Z,16.60
2023-04-13T12:25:25.168Z,16.80
2023-04-13T12:27:53.601Z,16.90
2023-04-13T12:30:21.782Z,17.00
2023-04-13T12:32:53.351Z,16.90
2023-04-13T12:35:20.544Z,17.00
2023-04-13T12:37:48.432Z,16.70
2023-04-13T12:40:16.253Z,16.60
2023-04-13T12:42:43.801Z,16.50
2023-04-13T12:45:10.777Z,16.70
2023-04-13T12:47:37.924Z,16.70
2023-04-13T12:50:09.321Z,17.00
2023-04-13T12:52:39.207Z,17.10
2023-04-13T12:55:06.773Z,17.20
2023-04-13T12:57:33.486Z,17.10
2023-04-13T13:00:00.693Z,16.90
2023-04-13T13:02:30.995Z,16.70
2023-04-13T13:04:59.046Z,16.60
2023-04-13T13:07:26.262Z,16.50
2023-04-13T13:09:53.000Z,16.80
2023-04-13T13:12:19.622Z,17.30
2023-04-13T13:14:46.410Z,17.60
2023-04-13T13:17:13.063Z,17.80
2023-04-13T13:19:39.663Z,17.80
2023-04-13T13:22:06.425Z,18.00
2023-04-13T13:24:33.242Z,17.80
2023-04-13T13:29:33.162Z,17.90
2023-04-13T13:32:00.681Z,18.40
2023-04-13T13:34:27.462Z,19.10
2023-04-13T13:36:54.117Z,19.00
2023-04-13T13:39:22.321Z,18.90
2023-04-13T13:41:49.659Z,18.90
2023-04-13T13:44:16.851Z,19.20
2023-04-13T13:46:43.828Z,18.80
2023-04-13T13:49:11.792Z,18.50
2023-04-13T13:51:38.479Z,18.00
2023-04-13T13:54:05.228Z,17.80
2023-04-13T13:56:32.058Z,17.60
2023-04-13T13:58:59.111Z,17.50
2023-04-13T14:01:26.008Z,17.60
2023-04-13T14:03:53.211Z,17.80
2023-04-13T14:06:20.419Z,17.80
2023-04-13T14:08:47.147Z,17.90
2023-04-13T14:11:13.873Z,17.70
2023-04-13T14:13:40.579Z,18.00
2023-04-13T14:16:07.734Z,18.20
2023-04-13T14:18:34.612Z,18.30
2023-04-13T14:21:01.395Z,18.30
2023-04-13T14:23:28.280Z,18.10
2023-04-13T14:25:55.106Z,18.40
2023-04-13T14:28:21.835Z,18.60
2023-04-13T14:30:48.506Z,18.60
2023-04-13T14:33:16.191Z,18.30
2023-04-13T14:35:43.180Z,18.30
2023-04-13T14:38:09.857Z,18.50
2023-04-13T14:40:36.522Z,18.40
2023-04-13T14:43:03.568Z,18.20
2023-04-13T14:45:30.294Z,17.80
2023-04-13T14:47:57.125Z,17.80
2023-04-13T14:50:24.261Z,17.70
2023-04-13T14:52:50.988Z,17.50
2023-04-13T14:55:17.875Z,17.60
2023-04-13T14:57:48.036Z,18.10
2023-04-13T15:00:18.171Z,18.40
2023-04-13T15:02:45.044Z,18.50
2023-04-13T15:05:11.894Z,18.60
2023-04-13T15:07:38.580Z,18.50
2023-04-13T15:10:08.396Z,18.50
2023-04-13T15:12:35.203Z,18.20
2023-04-13T15:15:01.853Z,17.90
2023-04-13T15:17:29.607Z,17.80
2023-04-13T15:19:56.387Z,18.30
2023-04-13T15:22:23.105Z,18.80
2023-04-13T15:24:49.896Z,19.00
2023-04-13T15:27:16.598Z,18.80
2023-04-13T15:29:43.303Z,18.50
2023-04-13T15:32:10.052Z,18.10
2023-04-13T15:34:36.864Z,17.80
2023-04-13T15:37:03.539Z,17.50
2023-04-13T15:39:30.349Z,17.70
2023-04-13T15:41:57.804Z,18.20
2023-04-13T15:44:24.848Z,18.80
2023-04-13T15:46:51.707Z,19.50
2023-04-13T15:49:18.366Z,19.90
2023-04-13T15:51:45.022Z,20.30
2023-04-13T15:54:11.816Z,20.40
2023-04-13T15:56:38.463Z,20.60
2023-04-13T15:59:05.255Z,20.50
2023-04-13T16:01:49.222Z,20.00
2023-04-13T16:04:16.353Z,19.50
2023-04-13T16:06:43.114Z,19.10
2023-04-13T16:09:10.129Z,19.10
2023-04-13T16:11:39.952Z,19.00
2023-04-13T16:14:09.828Z,19.00
2023-04-13T16:16:44.452Z,19.00
2023-04-13T16:19:12.309Z,18.80
2023-04-13T16:21:40.274Z,18.80
2023-04-13T16:24:08.549Z,19.00
2023-04-13T16:26:35.369Z,19.00
2023-04-13T16:29:03.176Z,19.00
2023-04-13T16:31:30.439Z,18.90
2023-04-13T16:33:57.481Z,18.70
2023-04-13T16:36:24.274Z,18.60
2023-04-13T16:38:51.397Z,18.40
2023-04-13T16:41:18.056Z,18.30
2023-04-13T16:43:44.801Z,18.10
2023-04-13T16:46:14.442Z,17.90
2023-04-13T16:48:41.160Z,17.60
2023-04-13T16:51:08.130Z,17.40
2023-04-13T16:53:34.902Z,17.10
2023-04-13T16:56:01.639Z,17.10
2023-04-13T16:58:28.285Z,16.90
2023-04-13T17:00:54.915Z,16.60
2023-04-13T17:03:21.894Z,16.40
2023-04-13T17:05:48.650Z,16.10
2023-04-13T17:08:17.026Z,15.90
2023-04-13T17:10:43.915Z,15.60
2023-04-13T17:13:10.705Z,15.40
2023-04-13T17:15:37.317Z,15.30
2023-04-13T17:18:04.695Z,15.10
2023-04-13T17:20:31.822Z,15.00
2023-04-13T17:22:58.421Z,15.00
2023-04-13T17:25:25.057Z,14.80
2023-04-13T17:27:53.251Z,14.70
2023-04-13T17:30:20.142Z,14.60
2023-04-13T17:32:47.231Z,14.70
2023-04-13T17:35:14.437Z,14.50
2023-04-13T17:37:41.474Z,14.50
2023-04-13T17:40:08.731Z,14.40
2023-04-13T17:42:35.501Z,14.30
2023-04-13T17:45:02.370Z,14.20
2023-04-13T17:47:29.043Z,14.00
2023-04-13T17:49:55.748Z,13.80
2023-04-13T17:52:22.724Z,13.60
2023-04-13T17:54:49.366Z,13.50
2023-04-13T17:57:16.005Z,13.30
2023-04-13T17:59:43.631Z,13.00
2023-04-13T18:02:10.369Z,12.90
2023-04-13T18:04:37.152Z,12.70
2023-04-13T18:07:03.802Z,12.60
2023-04-13T18:09:31.370Z,12.40
2023-04-13T18:11:58.005Z,12.30
2023-04-13T18:14:24.752Z,12.10
2023-04-13T18:16:51.566Z,11.90
2023-04-13T18:19:18.188Z,11.80
2023-04-13T18:21:44.796Z,11.60
2023-04-13T18:24:11.474Z,11.50
2023-04-13T18:26:38.970Z,11.30
2023-04-13T18:29:05.688Z,11.20
2023-04-13T18:31:32.412Z,11.10
2023-04-13T18:33:59.324Z,10.90
2023-04-13T18:36:26.755Z,10.90
2023-04-13T18:38:54.971Z,10.70
2023-04-13T18:41:22.205Z,10.60
2023-04-13T18:43:48.867Z,10.50
2023-04-13T18:46:16.034Z,10.40
2023-04-13T18:48:42.671Z,10.30
2023-04-13T18:51:10.559Z,10.20
2023-04-13T18:53:37.251Z,10.10
2023-04-13T18:56:03.909Z,10.00
2023-04-13T18:58:30.683Z,9.90
2023-04-13T19:00:57.313Z,9.90
2023-04-13T19:03:24.056Z,9.90
2023-04-13T19:05:50.868Z,9.80
2023-04-13T19:08:17.704Z,9.70
2023-04-13T19:10:45.153Z,9.70
2023-04-13T19:13:11.960Z,9.60
2023-04-13T19:15:39.164Z,9.60
2023-04-13T19:18:06.551Z,9.50
2023-04-13T19:20:33.270Z,9.50
2023-04-13T19:22:59.885Z,9.50
2023-04-13T19:25:26.668Z,9.50
2023-04-13T19:27:53.307Z,9.50
2023-04-13T19:30:20.054Z,9.50
2023-04-13T19:32:48.747Z,9.40
2023-04-13T19:35:16.514Z,9.40
2023-04-13T19:37:43.376Z,9.40
2023-04-13T19:40:13.508Z,9.40
2023-04-13T19:42:43.317Z,9.50
2023-04-13T19:45:10.697Z,9.50
2023-04-13T19:47:38.465Z,9.40
2023-04-13T19:50:07.396Z,9.40
2023-04-13T19:52:34.143Z,9.40
2023-04-13T19:55:01.218Z,9.40
2023-04-13T19:57:28.513Z,9.30
2023-04-13T19:59:55.198Z,9.30
2023-04-13T20:02:22.044Z,9.30
2023-04-13T20:04:52.253Z,9.40
2023-04-13T20:07:19.116Z,9.30
2023-04-13T20:09:46.444Z,9.30
2023-04-13T20:12:13.478Z,9.30
2023-04-13T20:14:42.390Z,9.30
2023-04-13T20:17:10.516Z,9.30
2023-04-13T20:19:37.264Z,9.20
2023-04-13T20:22:04.869Z,9.20
2023-04-13T20:24:31.858Z,9.10
2023-04-13T20:26:59.010Z,9.10
2023-04-13T20:29:27.434Z,9.00
2023-04-13T20:31:54.896Z,8.90
2023-04-13T20:34:22.259Z,8.90
2023-04-13T20:36:49.112Z,8.80
2023-04-13T20:39:18.558Z,8.80
2023-04-13T20:41:55.178Z,8.70
2023-04-13T20:44:25.714Z,8.60
2023-04-13T20:46:54.141Z,8.50
2023-04-13T20:49:23.181Z,8.50
2023-04-13T20:51:53.839Z,8.40
2023-04-13T20:54:21.495Z,8.40
2023-04-13T20:56:49.124Z,8.30
2023-04-13T20:59:17.027Z,8.20
2023-04-13T21:01:44.027Z,8.20
2023-04-13T21:04:11.835Z,8.10
2023-04-13T21:06:38.586Z,8.00
2023-04-13T21:09:05.665Z,8.00
2023-04-13T21:11:32.368Z,7.90
2023-04-13T21:13:59.118Z,7.80
2023-04-13T21:16:26.506Z,7.70
2023-04-13T21:18:54.058Z,7.70
2023-04-13T21:21:23.397Z,7.60
2023-04-13T21:23:53.275Z,7.50
2023-04-13T21:26:20.819Z,7.50
2023-04-13T21:28:47.544Z,7.40
2023-04-13T21:31:14.385Z,7.40
2023-04-13T21:33:41.254Z,7.30
2023-04-13T21:38:40.946Z,7.30
2023-04-13T21:41:18.565Z,7.20
2023-04-13T21:43:45.946Z,7.20
2023-04-13T21:46:14.111Z,7.10
2023-04-13T21:48:41.730Z,7.00
2023-04-13T21:51:09.135Z,7.00
2023-04-13T21:53:37.408Z,7.00
2023-04-13T21:56:05.790Z,6.90
2023-04-13T21:58:43.568Z,6.80
2023-04-13T22:01:11.883Z,6.80
2023-04-13T22:03:40.517Z,6.70
2023-04-13T22:06:09.637Z,6.70
2023-04-13T22:08:37.038Z,6.60
2023-04-13T22:11:04.148Z,6.60
2023-04-13T22:13:30.892Z,6.60
2023-04-13T22:15:57.909Z,6.50
2023-04-13T22:18:24.833Z,6.50
2023-04-13T22:20:51.550Z,6.50
2023-04-13T22:23:18.740Z,6.50
2023-04-13T22:26:01.069Z,6.40
2023-04-13T22:28:28.677Z,6.40
2023-04-13T22:30:55.377Z,6.40
2023-04-13T22:33:22.231Z,6.40
2023-04-13T22:35:51.936Z,6.40
2023-04-13T22:38:19.329Z,6.50
2023-04-13T22:40:46.060Z,6.50
2023-04-13T22:43:12.715Z,6.50
2023-04-13T22:45:39.372Z,6.50
2023-04-13T22:48:06.501Z,6.50
2023-04-13T22:50:33.274Z,6.60
2023-04-13T22:53:00.038Z,6.60
2023-04-13T22:55:26.721Z,6.60
2023-04-13T22:57:53.356Z,6.60
2023-04-13T23:00:21.119Z,6.60
2023-04-13T23:02:50.485Z,6.70
2023-04-13T23:05:17.922Z,6.70
2023-04-13T23:07:44.644Z,6.70
2023-04-13T23:10:11.254Z,6.80
2023-04-13T23:12:38.088Z,6.80
2023-04-13T23:15:05.342Z,6.80
2023-04-13T23:17:32.081Z,6.80
2023-04-13T23:19:58.775Z,6.90
2023-04-13T23:22:25.495Z,6.90
2023-04-13T23:24:53.231Z,6.90
2023-04-13T23:27:19.978Z,6.90
2023-04-13T23:29:49.980Z,6.90
2023-04-13T23:32:16.633Z,6.90
2023-04-13T23:34:43.657Z,7.00
2023-04-13T23:37:10.670Z,7.00
2023-04-13T23:39:38.019Z,7.00
2023-04-13T23:42:05.013Z,7.00
2023-04-13T23:44:31.639Z,7.00
2023-04-13T23:46:58.305Z,7.00
2023-04-13T23:49:25.036Z,7.00
2023-04-13T23:51:51.695Z,7.00
2023-04-13T23:54:18.345Z,7.10
2023-04-13T23:56:45.062Z,7.10
2023-04-13T23:59:12.062Z,7.10
